createdAt,value
2019-05-10T00:00:27.836Z,1.40
2019-05-10T00:03:16.279Z,1.10
2019-05-10T00:06:04.754Z,0.90
2019-05-10T00:08:46.667Z,1.23
2019-05-10T00:11:38.863Z,1.10
2019-05-10T00:14:32.461Z,0.90
2019-05-10T00:17:10.058Z,1.10
2019-05-10T00:19:40.564Z,1.17
2019-05-10T00:22:10.997Z,1.13
2019-05-10T00:24:42.749Z,1.10
2019-05-10T00:27:13.612Z,1.20
2019-05-10T00:29:44.369Z,1.37
2019-05-10T00:32:14.854Z,1.33
2019-05-10T00:34:45.692Z,1.40
2019-05-10T00:37:16.132Z,2.10
2019-05-10T00:39:46.618Z,1.77
2019-05-10T00:42:17.047Z,1.63
2019-05-10T00:44:47.476Z,2.07
2019-05-10T00:47:17.948Z,2.20
2019-05-10T00:49:48.745Z,1.63
2019-05-10T00:52:19.485Z,2.40
2019-05-10T00:54:49.960Z,1.90
2019-05-10T00:57:21.195Z,2.33
2019-05-10T00:59:52.000Z,2.80
2019-05-10T01:02:22.492Z,2.00
2019-05-10T01:04:54.612Z,2.10
2019-05-10T01:07:25.031Z,2.10
2019-05-10T01:09:55.500Z,2.70
2019-05-10T01:12:26.428Z,3.03
2019-05-10T01:14:56.859Z,2.60
2019-05-10T01:17:27.333Z,2.80
2019-05-10T01:19:58.515Z,3.20
2019-05-10T01:22:29.343Z,3.30
2019-05-10T01:24:59.828Z,3.60
2019-05-10T01:27:30.281Z,2.93
2019-05-10T01:30:00.700Z,2.80
2019-05-10T01:32:31.185Z,4.00
2019-05-10T01:35:01.717Z,3.47
2019-05-10T01:37:32.523Z,3.30
2019-05-10T01:40:03.477Z,3.33
2019-05-10T01:42:33.909Z,3.10
2019-05-10T01:45:05.032Z,5.47
2019-05-10T01:47:35.832Z,4.93
2019-05-10T01:50:06.376Z,6.10
2019-05-10T01:52:36.800Z,7.50
2019-05-10T01:55:08.684Z,6.73
2019-05-10T01:57:39.953Z,7.87
2019-05-10T02:00:11.466Z,8.60
2019-05-10T02:02:41.920Z,9.00
2019-05-10T02:05:12.457Z,8.13
2019-05-10T02:07:42.939Z,8.73
2019-05-10T02:10:14.068Z,8.77
2019-05-10T02:12:44.905Z,8.90
2019-05-10T02:15:15.889Z,9.10
2019-05-10T02:17:46.351Z,8.93
2019-05-10T02:20:17.292Z,9.83
2019-05-10T02:22:48.160Z,9.90
2019-05-10T02:25:18.602Z,11.20
2019-05-10T02:27:49.054Z,10.20
2019-05-10T02:30:19.745Z,9.63
2019-05-10T02:32:50.193Z,9.37
2019-05-10T02:35:20.616Z,9.33
2019-05-10T02:37:51.379Z,10.57
2019-05-10T02:40:22.707Z,11.77
2019-05-10T02:42:53.179Z,11.27
2019-05-10T02:45:23.637Z,10.97
2019-05-10T02:47:54.075Z,11.80
2019-05-10T02:50:24.513Z,14.17
2019-05-10T02:52:55.108Z,12.43
2019-05-10T02:55:26.046Z,13.13
2019-05-10T02:57:57.167Z,13.73
2019-05-10T03:00:28.052Z,14.10
2019-05-10T03:03:00.226Z,13.40
2019-05-10T03:05:34.417Z,15.30
2019-05-10T03:08:05.492Z,13.57
2019-05-10T03:10:38.899Z,12.90
2019-05-10T03:13:12.253Z,13.20
2019-05-10T03:15:45.596Z,12.60
2019-05-10T03:18:16.525Z,12.33
2019-05-10T03:20:48.931Z,12.63
2019-05-10T03:23:19.985Z,14.60
2019-05-10T03:25:50.432Z,13.80
2019-05-10T03:28:20.899Z,12.93
2019-05-10T03:30:51.383Z,13.67
2019-05-10T03:33:22.257Z,14.50
2019-05-10T03:35:53.445Z,15.07
2019-05-10T03:38:24.519Z,13.70
2019-05-10T03:40:55.059Z,14.37
2019-05-10T03:43:26.004Z,14.47
2019-05-10T03:45:56.898Z,15.70
2019-05-10T03:48:27.642Z,16.93
2019-05-10T03:50:58.984Z,16.73
2019-05-10T03:53:30.170Z,17.03
2019-05-10T03:56:01.260Z,17.73
2019-05-10T03:58:32.467Z,18.07
2019-05-10T04:01:03.303Z,18.37
2019-05-10T04:03:33.742Z,19.67
2019-05-10T04:06:04.190Z,19.80
2019-05-10T04:08:34.680Z,17.80
2019-05-10T04:11:05.502Z,18.37
2019-05-10T04:13:36.273Z,18.57
2019-05-10T04:16:06.855Z,17.57
2019-05-10T04:18:37.348Z,15.37
2019-05-10T04:21:07.879Z,16.07
2019-05-10T04:23:39.185Z,14.40
2019-05-10T04:26:09.633Z,14.50
2019-05-10T04:28:40.465Z,13.93
2019-05-10T04:31:11.026Z,14.30
2019-05-10T04:33:41.465Z,14.30
2019-05-10T04:36:12.934Z,12.70
2019-05-10T04:38:43.905Z,12.80
2019-05-10T04:41:14.353Z,13.23
2019-05-10T04:43:45.181Z,13.13
2019-05-10T04:46:15.663Z,12.07
2019-05-10T04:48:46.116Z,12.30
2019-05-10T04:51:16.555Z,10.77
2019-05-10T04:53:47.043Z,11.13
2019-05-10T04:56:17.874Z,11.40
2019-05-10T04:58:48.681Z,9.90
2019-05-10T05:01:19.179Z,9.53
2019-05-10T05:03:49.622Z,8.43
2019-05-10T05:06:20.058Z,8.50
2019-05-10T05:08:50.538Z,8.07
2019-05-10T05:11:21.344Z,8.43
2019-05-10T05:13:51.793Z,8.30
2019-05-10T05:16:23.274Z,7.80
2019-05-10T05:18:54.056Z,7.57
2019-05-10T05:21:24.932Z,6.97
2019-05-10T05:23:56.105Z,6.67
2019-05-10T05:26:27.478Z,7.10
2019-05-10T05:28:58.994Z,7.30
2019-05-10T05:31:29.498Z,7.37
2019-05-10T05:34:04.956Z,6.40
2019-05-10T05:36:32.492Z,6.60
2019-05-10T05:39:03.615Z,7.30
2019-05-10T05:41:47.629Z,6.37
2019-05-10T05:44:06.493Z,6.70
2019-05-10T05:46:37.614Z,6.47
2019-05-10T05:49:08.058Z,6.57
2019-05-10T05:51:38.489Z,7.03
2019-05-10T05:54:09.018Z,6.60
2019-05-10T05:56:44.469Z,7.30
2019-05-10T05:59:17.393Z,6.80
2019-05-10T06:01:44.870Z,7.10
2019-05-10T06:04:15.311Z,7.43
2019-05-10T06:06:45.749Z,7.67
2019-05-10T06:09:16.238Z,6.93
2019-05-10T06:11:46.769Z,7.60
2019-05-10T06:14:17.597Z,7.67
2019-05-10T06:16:51.596Z,7.33
2019-05-10T06:19:28.764Z,6.73
2019-05-10T06:21:58.018Z,6.17
2019-05-10T06:24:24.818Z,7.07
2019-05-10T06:26:58.335Z,6.90
2019-05-10T06:29:27.452Z,6.83
2019-05-10T06:31:59.016Z,6.80
2019-05-10T06:34:31.775Z,6.60
2019-05-10T06:37:01.751Z,6.43
2019-05-10T06:39:32.583Z,7.30
2019-05-10T06:42:03.017Z,6.23
2019-05-10T06:44:33.562Z,7.40
2019-05-10T06:47:08.340Z,6.53
2019-05-10T06:49:41.756Z,6.87
2019-05-10T06:52:08.616Z,6.73
2019-05-10T06:54:39.371Z,6.60
2019-05-10T06:57:11.325Z,6.67
2019-05-10T06:59:42.289Z,6.00
2019-05-10T07:02:12.716Z,6.10
2019-05-10T07:04:43.144Z,6.83
2019-05-10T07:07:22.098Z,6.40
2019-05-10T07:10:03.788Z,7.30
2019-05-10T07:12:18.550Z,7.07
2019-05-10T07:14:49.477Z,6.30
2019-05-10T07:17:20.694Z,6.80
2019-05-10T07:19:54.892Z,6.00
2019-05-10T07:22:26.980Z,6.77
2019-05-10T07:24:57.163Z,6.60
2019-05-10T07:27:29.062Z,6.90
2019-05-10T07:30:00.205Z,7.23
2019-05-10T07:32:31.045Z,5.90
2019-05-10T07:35:01.533Z,6.63
2019-05-10T07:37:31.959Z,6.30
2019-05-10T07:40:03.605Z,6.13
2019-05-10T07:42:34.653Z,6.17
2019-05-10T07:45:07.231Z,6.00
2019-05-10T07:47:37.964Z,5.43
2019-05-10T07:50:11.499Z,6.50
2019-05-10T07:52:45.677Z,6.60
2019-05-10T07:55:18.549Z,6.07
2019-05-10T07:57:46.424Z,6.73
2019-05-10T08:00:17.850Z,7.97
2019-05-10T08:02:51.213Z,7.17
2019-05-10T08:05:20.800Z,7.27
2019-05-10T08:07:51.637Z,7.67
2019-05-10T08:10:23.388Z,7.40
2019-05-10T08:12:54.228Z,7.73
2019-05-10T08:15:29.759Z,7.67
2019-05-10T08:17:58.524Z,8.10
2019-05-10T08:20:45.753Z,8.43
2019-05-10T08:23:02.860Z,8.53
2019-05-10T08:25:36.322Z,7.83
2019-05-10T08:28:05.658Z,7.80
2019-05-10T08:30:53.599Z,8.13
2019-05-10T08:33:19.377Z,9.00
2019-05-10T08:35:52.501Z,8.97
2019-05-10T08:38:22.385Z,7.87
2019-05-10T08:40:53.172Z,8.03
2019-05-10T08:43:24.645Z,7.83
2019-05-10T08:45:57.850Z,8.07
2019-05-10T08:48:27.823Z,8.20
2019-05-10T08:51:04.004Z,8.37
2019-05-10T08:53:32.928Z,8.53
2019-05-10T08:56:07.656Z,8.77
2019-05-10T08:58:37.263Z,8.87
2019-05-10T09:01:18.994Z,9.27
2019-05-10T09:03:41.979Z,9.30
2019-05-10T09:06:16.589Z,8.63
2019-05-10T09:08:44.483Z,8.87
2019-05-10T09:11:16.404Z,8.43
2019-05-10T09:13:47.024Z,7.97
2019-05-10T09:16:19.041Z,8.47
2019-05-10T09:18:51.234Z,7.23
2019-05-10T09:21:22.450Z,8.03
2019-05-10T09:24:01.697Z,8.03
2019-05-10T09:26:25.656Z,8.60
2019-05-10T09:28:57.711Z,9.37
2019-05-10T09:31:28.791Z,8.90
2019-05-10T09:33:59.226Z,9.90
2019-05-10T09:36:35.364Z,9.87
2019-05-10T09:39:03.410Z,9.97
2019-05-10T09:41:38.247Z,8.80
2019-05-10T09:44:06.843Z,9.17
2019-05-10T09:46:37.912Z,9.87
2019-05-10T09:49:15.626Z,10.60
2019-05-10T09:51:42.285Z,9.60
2019-05-10T09:54:14.167Z,8.47
2019-05-10T09:56:49.093Z,9.53
2019-05-10T09:59:17.925Z,9.20
2019-05-10T10:01:48.681Z,9.03
2019-05-10T10:04:20.429Z,9.00
2019-05-10T10:06:52.889Z,9.03
2019-05-10T10:09:24.521Z,8.80
2019-05-10T10:12:00.961Z,8.50
2019-05-10T10:14:28.442Z,8.30
2019-05-10T10:17:02.970Z,7.27
2019-05-10T10:19:31.188Z,7.13
2019-05-10T10:22:05.546Z,6.20
2019-05-10T10:24:37.884Z,6.90
2019-05-10T10:27:07.479Z,6.17
2019-05-10T10:29:38.749Z,5.90
2019-05-10T10:32:09.545Z,5.77
2019-05-10T10:34:42.939Z,6.30
2019-05-10T10:37:14.549Z,5.80
2019-05-10T10:39:47.518Z,5.80
2019-05-10T10:42:17.769Z,5.47
2019-05-10T10:44:48.441Z,5.30
2019-05-10T10:47:22.821Z,5.40
2019-05-10T10:49:51.756Z,5.73
2019-05-10T10:52:22.582Z,4.67
2019-05-10T10:54:53.015Z,4.00
2019-05-10T10:57:23.496Z,4.50
2019-05-10T10:59:53.928Z,4.50
2019-05-10T11:02:32.404Z,3.90
2019-05-10T11:04:56.550Z,3.70
2019-05-10T11:07:26.981Z,3.57
2019-05-10T11:10:08.000Z,3.40
2019-05-10T11:12:30.895Z,3.17
2019-05-10T11:15:01.639Z,3.33
2019-05-10T11:17:32.068Z,3.00
2019-05-10T11:20:03.728Z,2.60
2019-05-10T11:22:34.164Z,2.70
2019-05-10T11:25:09.545Z,2.77
2019-05-10T11:27:37.573Z,3.30
2019-05-10T11:30:08.237Z,2.57
2019-05-10T11:32:38.672Z,3.17
2019-05-10T11:35:11.847Z,3.00
2019-05-10T11:37:45.482Z,3.20
2019-05-10T11:40:18.083Z,2.77
2019-05-10T11:42:47.762Z,2.97
2019-05-10T11:45:20.931Z,2.90
2019-05-10T11:47:54.465Z,2.73
2019-05-10T11:50:31.481Z,2.53
2019-05-10T11:52:56.218Z,2.87
2019-05-10T11:55:26.804Z,2.90
2019-05-10T11:58:03.008Z,3.30
2019-05-10T12:00:34.113Z,2.80
2019-05-10T12:03:10.993Z,3.27
2019-05-10T12:05:34.524Z,3.00
2019-05-10T12:08:04.972Z,2.77
2019-05-10T12:10:35.744Z,2.20
2019-05-10T12:13:15.876Z,2.97
2019-05-10T12:15:42.598Z,2.80
2019-05-10T12:18:14.859Z,2.53
2019-05-10T12:20:55.548Z,2.70
2019-05-10T12:23:22.775Z,2.87
2019-05-10T12:26:18.785Z,1.90
2019-05-10T12:28:24.584Z,2.93
2019-05-10T12:30:52.602Z,2.70
2019-05-10T12:33:25.800Z,3.13
2019-05-10T12:35:56.326Z,3.00
2019-05-10T12:38:29.632Z,3.00
2019-05-10T12:41:01.218Z,2.90
2019-05-10T12:43:31.627Z,3.37
2019-05-10T12:46:02.073Z,2.80
2019-05-10T12:48:35.424Z,2.80
2019-05-10T12:51:08.462Z,2.60
2019-05-10T12:53:44.664Z,3.20
2019-05-10T12:56:09.105Z,2.40
2019-05-10T12:58:39.579Z,2.80
2019-05-10T13:01:10.019Z,2.43
2019-05-10T13:03:40.456Z,2.50
2019-05-10T13:06:11.548Z,2.77
2019-05-10T13:08:42.349Z,2.93
2019-05-10T13:11:12.782Z,2.43
2019-05-10T13:13:43.446Z,2.37
2019-05-10T13:16:13.897Z,2.47
2019-05-10T13:18:52.669Z,2.53
2019-05-10T13:21:20.766Z,2.60
2019-05-10T13:23:53.390Z,2.80
2019-05-10T13:26:21.723Z,2.60
2019-05-10T13:28:52.485Z,2.40
2019-05-10T13:31:22.920Z,1.53
2019-05-10T13:33:53.709Z,2.17
2019-05-10T13:36:24.186Z,1.83
2019-05-10T13:38:54.619Z,1.90
2019-05-10T13:41:26.535Z,1.90
2019-05-10T13:43:58.971Z,1.87
2019-05-10T13:46:29.927Z,2.00
2019-05-10T13:49:01.208Z,2.00
2019-05-10T13:51:31.643Z,1.67
2019-05-10T13:54:05.107Z,1.83
2019-05-10T13:56:35.859Z,1.80
2019-05-10T13:59:15.345Z,1.87
2019-05-10T14:01:38.463Z,1.70
2019-05-10T14:04:08.954Z,1.77
2019-05-10T14:06:39.721Z,1.80
2019-05-10T14:09:10.191Z,2.40
2019-05-10T14:11:46.285Z,2.47
2019-05-10T14:14:14.706Z,3.03
2019-05-10T14:16:45.163Z,2.70
2019-05-10T14:19:22.257Z,2.43
2019-05-10T14:21:48.118Z,2.63
2019-05-10T14:24:18.917Z,1.50
2019-05-10T14:26:51.586Z,1.70
2019-05-10T14:29:33.343Z,2.90
2019-05-10T14:31:54.930Z,2.17
2019-05-10T14:34:25.849Z,1.77
2019-05-10T14:36:56.660Z,1.67
2019-05-10T14:39:27.362Z,2.80
2019-05-10T14:41:57.829Z,1.47
2019-05-10T14:44:29.796Z,1.50
2019-05-10T14:47:02.199Z,1.40
2019-05-10T14:49:32.690Z,1.23
2019-05-10T14:52:03.588Z,1.60
2019-05-10T14:54:43.224Z,1.50
2019-05-10T14:57:06.252Z,2.30
2019-05-10T14:59:37.076Z,3.17
2019-05-10T15:02:07.612Z,2.50
2019-05-10T15:04:47.134Z,2.57
2019-05-10T15:07:14.157Z,2.30
2019-05-10T15:09:42.706Z,2.80
2019-05-10T15:12:15.877Z,2.50
2019-05-10T15:14:45.575Z,2.70
2019-05-10T15:17:19.592Z,2.20
2019-05-10T15:19:57.885Z,2.50
2019-05-10T15:22:23.002Z,2.10
2019-05-10T15:24:54.079Z,2.40
2019-05-10T15:27:25.092Z,2.10
2019-05-10T15:29:58.829Z,2.37
2019-05-10T15:32:28.800Z,2.30
2019-05-10T15:35:08.367Z,2.10
2019-05-10T15:37:31.513Z,2.10
2019-05-10T15:40:06.202Z,2.23
2019-05-10T15:42:36.090Z,2.17
2019-05-10T15:45:12.229Z,2.50
2019-05-10T15:47:50.608Z,2.40
2019-05-10T15:50:11.919Z,2.30
2019-05-10T15:52:46.283Z,2.70
2019-05-10T15:55:16.420Z,2.37
2019-05-10T15:57:51.818Z,2.53
2019-05-10T16:00:24.491Z,2.40
2019-05-10T16:02:53.435Z,2.50
2019-05-10T16:05:42.050Z,2.53
2019-05-10T16:07:57.551Z,2.80
2019-05-10T16:10:38.901Z,2.07
2019-05-10T16:13:00.662Z,2.53
2019-05-10T16:15:31.172Z,2.47
2019-05-10T16:18:02.082Z,2.67
2019-05-10T16:20:37.272Z,3.07
2019-05-10T16:23:08.652Z,2.73
2019-05-10T16:25:42.872Z,2.40
2019-05-10T16:28:10.204Z,2.50
2019-05-10T16:30:41.141Z,2.93
2019-05-10T16:33:15.721Z,2.77
2019-05-10T16:35:44.188Z,2.70
2019-05-10T16:38:15.938Z,2.63
2019-05-10T16:40:57.158Z,2.70
2019-05-10T16:43:24.005Z,3.07
2019-05-10T16:45:51.868Z,3.07
2019-05-10T16:48:22.434Z,3.57
2019-05-10T16:50:54.879Z,2.87
2019-05-10T16:53:25.846Z,2.50
2019-05-10T16:55:56.295Z,2.90
2019-05-10T16:58:26.829Z,3.00
2019-05-10T17:00:57.682Z,9.80
2019-05-10T17:03:28.749Z,2.60
2019-05-10T17:06:04.055Z,2.67
2019-05-10T17:08:36.837Z,2.80
2019-05-10T17:11:09.603Z,2.77
2019-05-10T17:13:41.485Z,2.57
2019-05-10T17:16:11.647Z,2.87
2019-05-10T17:18:41.206Z,2.60
2019-05-10T17:21:11.658Z,2.70
2019-05-10T17:23:46.931Z,2.87
2019-05-10T17:26:14.752Z,2.57
2019-05-10T17:28:45.209Z,3.27
2019-05-10T17:31:16.070Z,3.07
2019-05-10T17:33:46.908Z,3.03
2019-05-10T17:36:20.037Z,2.90
2019-05-10T17:38:53.397Z,3.00
2019-05-10T17:41:24.669Z,2.73
2019-05-10T17:43:53.811Z,3.13
2019-05-10T17:46:24.253Z,3.17
2019-05-10T17:48:54.745Z,2.80
2019-05-10T17:51:25.254Z,4.17
2019-05-10T17:54:01.435Z,7.53
2019-05-10T17:56:32.855Z,2.93
2019-05-10T17:59:00.076Z,4.70
2019-05-10T18:01:30.680Z,3.47
2019-05-10T18:04:02.215Z,2.97
2019-05-10T18:06:32.837Z,3.00
2019-05-10T18:09:03.377Z,3.07
2019-05-10T18:11:36.892Z,3.47
2019-05-10T18:14:07.182Z,2.73
2019-05-10T18:16:41.872Z,2.90
2019-05-10T18:19:10.287Z,2.83
2019-05-10T18:21:40.875Z,3.20
2019-05-10T18:24:11.574Z,2.90
2019-05-10T18:26:42.049Z,2.83
2019-05-10T18:29:13.009Z,2.63
2019-05-10T18:31:55.051Z,2.90
2019-05-10T18:34:18.698Z,2.97
2019-05-10T18:36:51.385Z,2.87
2019-05-10T18:39:21.987Z,2.43
2019-05-10T18:41:54.377Z,2.73
2019-05-10T18:44:24.833Z,2.73
2019-05-10T18:46:55.291Z,4.17
2019-05-10T18:49:26.472Z,3.50
2019-05-10T18:52:03.346Z,3.63
2019-05-10T18:54:29.077Z,2.90
2019-05-10T18:57:04.477Z,2.50
2019-05-10T18:59:34.221Z,2.63
2019-05-10T19:02:05.072Z,2.47
2019-05-10T19:04:39.931Z,3.20
2019-05-10T19:07:10.594Z,2.87
2019-05-10T19:09:41.033Z,2.40
2019-05-10T19:12:18.043Z,2.60
2019-05-10T19:14:44.882Z,3.03
2019-05-10T19:17:15.595Z,3.20
2019-05-10T19:19:46.572Z,3.23
2019-05-10T19:22:18.245Z,3.80
2019-05-10T19:24:49.685Z,3.60
2019-05-10T19:27:20.134Z,3.87
2019-05-10T19:29:50.749Z,3.90
2019-05-10T19:32:21.213Z,5.20
2019-05-10T19:34:57.052Z,4.60
2019-05-10T19:37:30.101Z,4.40
2019-05-10T19:39:57.841Z,3.93
2019-05-10T19:42:31.395Z,4.50
2019-05-10T19:45:01.002Z,4.43
2019-05-10T19:47:32.044Z,4.70
2019-05-10T19:50:02.637Z,5.03
2019-05-10T19:52:33.163Z,5.30
2019-05-10T19:55:03.714Z,5.83
2019-05-10T19:57:34.209Z,6.70
2019-05-10T20:00:05.144Z,6.13
2019-05-10T20:02:38.107Z,7.43
2019-05-10T20:05:08.567Z,7.00
2019-05-10T20:07:45.939Z,6.93
2019-05-10T20:10:13.077Z,6.63
2019-05-10T20:12:44.224Z,7.20
2019-05-10T20:15:14.930Z,7.50
2019-05-10T20:17:46.255Z,7.90
2019-05-10T20:20:17.495Z,7.33
2019-05-10T20:22:48.739Z,8.33
2019-05-10T20:25:19.161Z,7.53
2019-05-10T20:27:51.021Z,7.90
2019-05-10T20:30:21.785Z,8.37
2019-05-10T20:32:52.233Z,8.60
2019-05-10T20:35:22.682Z,7.80
2019-05-10T20:38:01.484Z,8.97
2019-05-10T20:40:25.296Z,8.33
2019-05-10T20:42:56.141Z,9.10
2019-05-10T20:45:26.671Z,10.30
2019-05-10T20:47:57.861Z,8.63
2019-05-10T20:50:28.644Z,8.17
2019-05-10T20:52:59.123Z,8.63
2019-05-10T20:55:29.573Z,8.83
2019-05-10T20:58:00.027Z,8.60
2019-05-10T21:00:31.551Z,9.53
2019-05-10T21:03:02.364Z,9.97
2019-05-10T21:05:32.854Z,10.43
2019-05-10T21:08:16.070Z,9.73
2019-05-10T21:10:36.158Z,10.10
2019-05-10T21:13:06.616Z,9.70
2019-05-10T21:15:37.129Z,10.33
2019-05-10T21:18:07.566Z,10.57
2019-05-10T21:20:38.060Z,11.80
2019-05-10T21:23:08.544Z,12.27
2019-05-10T21:25:39.723Z,12.57
2019-05-10T21:28:10.177Z,11.80
2019-05-10T21:30:41.402Z,11.50
2019-05-10T21:33:11.852Z,10.77
2019-05-10T21:35:43.246Z,10.77
2019-05-10T21:38:14.088Z,11.80
2019-05-10T21:40:44.926Z,12.50
2019-05-10T21:43:16.378Z,12.40
2019-05-10T21:45:46.940Z,11.80
2019-05-10T21:48:17.381Z,12.43
2019-05-10T21:50:48.254Z,11.23
2019-05-10T21:53:18.746Z,12.13
2019-05-10T21:55:49.860Z,12.40
2019-05-10T21:58:21.202Z,11.80
2019-05-10T22:00:53.583Z,11.13
2019-05-10T22:03:24.193Z,11.10
2019-05-10T22:05:54.657Z,10.90
2019-05-10T22:08:25.149Z,11.07
2019-05-10T22:10:55.609Z,11.17
2019-05-10T22:13:26.050Z,11.43
2019-05-10T22:15:58.229Z,12.20
2019-05-10T22:18:28.671Z,11.17
2019-05-10T22:20:59.117Z,12.43
2019-05-10T22:23:30.094Z,12.90
2019-05-10T22:26:00.542Z,13.00
2019-05-10T22:28:31.007Z,14.73
2019-05-10T22:31:01.496Z,14.13
2019-05-10T22:33:31.931Z,13.30
2019-05-10T22:36:02.382Z,12.70
2019-05-10T22:38:33.253Z,14.30
2019-05-10T22:41:03.684Z,13.73
2019-05-10T22:43:34.123Z,14.87
2019-05-10T22:46:05.006Z,13.87
2019-05-10T22:48:35.474Z,14.00
2019-05-10T22:51:05.938Z,14.67
2019-05-10T22:53:36.847Z,14.77
2019-05-10T22:56:07.295Z,15.93
2019-05-10T22:58:37.889Z,15.17
2019-05-10T23:01:08.383Z,16.53
2019-05-10T23:03:38.830Z,15.40
2019-05-10T23:06:10.077Z,14.47
2019-05-10T23:08:40.900Z,14.60
2019-05-10T23:11:11.407Z,16.67
2019-05-10T23:13:42.182Z,14.50
2019-05-10T23:16:12.704Z,15.07
2019-05-10T23:18:43.170Z,14.50
2019-05-10T23:21:13.608Z,14.43
2019-05-10T23:23:44.863Z,15.33
2019-05-10T23:26:16.686Z,15.80
2019-05-10T23:28:47.164Z,18.03
2019-05-10T23:31:17.642Z,18.53
2019-05-10T23:33:48.387Z,18.47
2019-05-10T23:36:19.311Z,18.63
2019-05-10T23:38:52.302Z,19.90
2019-05-10T23:41:22.338Z,19.73
2019-05-10T23:43:52.778Z,18.70
2019-05-10T23:46:24.013Z,17.53
2019-05-10T23:48:54.489Z,17.17
2019-05-10T23:51:24.923Z,19.17
2019-05-10T23:53:56.311Z,18.30
2019-05-10T23:56:26.784Z,18.53
2019-05-10T23:58:58.202Z,20.77
